createdAt,value
2022-08-26T00:00:57.386Z,21.20
2022-08-26T00:03:26.419Z,21.10
2022-08-26T00:05:55.925Z,21.10
2022-08-26T00:08:24.317Z,21.10
2022-08-26T00:10:53.929Z,21.10
2022-08-26T00:13:22.249Z,21.10
2022-08-26T00:15:51.308Z,21.10
2022-08-26T00:18:22.175Z,21.10
2022-08-26T00:20:52.208Z,21.10
2022-08-26T00:23:20.552Z,21.10
2022-08-26T00:25:54.465Z,21.10
2022-08-26T00:28:25.856Z,21.10
2022-08-26T00:30:54.204Z,21.10
2022-08-26T00:33:23.005Z,21.10
2022-08-26T00:35:51.677Z,21.00
2022-08-26T00:38:21.249Z,21.00
2022-08-26T00:40:56.143Z,21.00
2022-08-26T00:43:26.400Z,21.00
2022-08-26T00:46:02.296Z,21.00
2022-08-26T00:48:34.839Z,20.90
2022-08-26T00:51:09.911Z,20.90
2022-08-26T00:53:46.304Z,20.80
2022-08-26T00:56:30.114Z,20.80
2022-08-26T00:59:04.801Z,20.80
2022-08-26T01:01:33.232Z,20.80
2022-08-26T01:04:02.739Z,20.80
2022-08-26T01:06:31.361Z,20.80
2022-08-26T01:08:59.516Z,20.80
2022-08-26T01:11:29.256Z,20.80
2022-08-26T01:14:02.063Z,20.70
2022-08-26T01:16:33.199Z,20.70
2022-08-26T01:19:14.156Z,20.70
2022-08-26T01:21:50.904Z,20.70
2022-08-26T01:24:20.873Z,20.60
2022-08-26T01:26:50.099Z,20.60
2022-08-26T01:29:20.871Z,20.60
2022-08-26T01:31:59.123Z,20.60
2022-08-26T01:34:32.299Z,20.60
2022-08-26T01:37:14.166Z,20.60
2022-08-26T01:39:49.373Z,20.50
2022-08-26T01:42:21.541Z,20.50
2022-08-26T01:44:58.605Z,20.50
2022-08-26T01:47:31.822Z,20.60
2022-08-26T01:50:04.414Z,20.50
2022-08-26T01:52:36.812Z,20.50
2022-08-26T01:55:09.169Z,20.40
2022-08-26T01:57:38.267Z,20.40
2022-08-26T02:00:10.822Z,20.40
2022-08-26T02:02:39.107Z,20.40
2022-08-26T02:05:12.839Z,20.40
2022-08-26T02:07:42.439Z,20.40
2022-08-26T02:10:13.960Z,20.40
2022-08-26T02:12:43.156Z,20.30
2022-08-26T02:15:13.882Z,20.30
2022-08-26T02:17:47.656Z,20.30
2022-08-26T02:20:21.550Z,20.30
2022-08-26T02:22:49.942Z,20.30
2022-08-26T02:25:29.011Z,20.30
2022-08-26T02:27:57.676Z,20.40
2022-08-26T02:30:29.917Z,20.40
2022-08-26T02:33:00.194Z,20.40
2022-08-26T02:35:28.411Z,20.40
2022-08-26T02:38:00.282Z,20.40
2022-08-26T02:40:34.649Z,20.40
2022-08-26T02:43:04.661Z,20.40
2022-08-26T02:45:38.063Z,20.40
2022-08-26T02:48:13.922Z,20.40
2022-08-26T02:50:42.823Z,20.40
2022-08-26T02:53:13.216Z,20.40
2022-08-26T02:55:43.296Z,20.50
2022-08-26T02:58:12.277Z,20.50
2022-08-26T03:00:52.836Z,20.50
2022-08-26T03:03:23.743Z,20.50
2022-08-26T03:05:52.176Z,20.50
2022-08-26T03:08:22.168Z,20.40
2022-08-26T03:10:51.797Z,20.40
2022-08-26T03:13:19.941Z,20.40
2022-08-26T03:15:48.085Z,20.40
2022-08-26T03:18:16.437Z,20.40
2022-08-26T03:20:45.503Z,20.40
2022-08-26T03:23:13.673Z,20.30
2022-08-26T03:25:42.327Z,20.30
2022-08-26T03:28:12.090Z,20.30
2022-08-26T03:30:45.322Z,20.20
2022-08-26T03:33:15.272Z,20.20
2022-08-26T03:35:47.349Z,20.20
2022-08-26T03:38:16.199Z,20.20
2022-08-26T03:40:45.486Z,20.10
2022-08-26T03:43:17.474Z,20.10
2022-08-26T03:45:46.450Z,20.00
2022-08-26T03:48:15.344Z,20.00
2022-08-26T03:50:43.830Z,19.90
2022-08-26T03:53:12.767Z,19.90
2022-08-26T03:55:43.185Z,19.90
2022-08-26T03:58:11.893Z,19.90
2022-08-26T04:00:41.449Z,19.90
2022-08-26T04:03:14.652Z,19.80
2022-08-26T04:05:46.218Z,19.90
2022-08-26T04:08:14.859Z,19.90
2022-08-26T04:10:43.457Z,19.80
2022-08-26T04:13:12.249Z,19.80
2022-08-26T04:15:41.939Z,19.90
2022-08-26T04:18:10.211Z,19.90
2022-08-26T04:20:39.032Z,19.90
2022-08-26T04:23:07.303Z,19.80
2022-08-26T04:25:35.861Z,19.80
2022-08-26T04:28:04.637Z,19.80
2022-08-26T04:30:33.317Z,19.80
2022-08-26T04:33:04.421Z,19.90
2022-08-26T04:35:41.029Z,19.90
2022-08-26T04:38:12.239Z,19.90
2022-08-26T04:40:46.728Z,19.90
2022-08-26T04:43:15.340Z,19.90
2022-08-26T04:45:43.990Z,20.00
2022-08-26T04:48:13.492Z,20.00
2022-08-26T04:50:45.098Z,20.00
2022-08-26T04:53:17.644Z,20.10
2022-08-26T04:55:45.878Z,20.20
2022-08-26T04:58:17.133Z,20.30
2022-08-26T05:00:46.282Z,20.30
2022-08-26T05:03:17.192Z,20.40
2022-08-26T05:05:49.811Z,20.50
2022-08-26T05:08:21.057Z,20.50
2022-08-26T05:10:54.599Z,20.60
2022-08-26T05:13:27.117Z,20.70
2022-08-26T05:16:01.313Z,20.80
2022-08-26T05:18:31.145Z,20.80
2022-08-26T05:20:59.256Z,20.90
2022-08-26T05:23:27.731Z,21.00
2022-08-26T05:25:59.128Z,21.10
2022-08-26T05:28:30.486Z,21.10
2022-08-26T05:30:58.745Z,21.20
2022-08-26T05:33:26.902Z,21.20
2022-08-26T05:35:56.407Z,21.30
2022-08-26T05:38:25.057Z,21.40
2022-08-26T05:40:58.615Z,21.50
2022-08-26T05:43:27.611Z,21.60
2022-08-26T05:45:56.063Z,21.70
2022-08-26T05:48:24.860Z,21.90
2022-08-26T05:50:54.447Z,22.10
2022-08-26T05:53:26.248Z,22.20
2022-08-26T05:55:56.188Z,22.40
2022-08-26T05:58:25.119Z,22.60
2022-08-26T06:01:01.223Z,22.70
2022-08-26T06:03:31.582Z,22.80
2022-08-26T06:06:00.197Z,22.80
2022-08-26T06:08:29.909Z,22.80
2022-08-26T06:11:02.834Z,22.90
2022-08-26T06:13:31.957Z,23.00
2022-08-26T06:16:04.237Z,23.00
2022-08-26T06:18:36.462Z,23.10
2022-08-26T06:21:16.012Z,23.20
2022-08-26T06:24:18.827Z,23.20
2022-08-26T06:26:51.397Z,23.20
2022-08-26T06:29:24.028Z,23.20
2022-08-26T06:31:53.886Z,23.30
2022-08-26T06:34:22.082Z,23.20
2022-08-26T06:36:53.165Z,23.30
2022-08-26T06:39:23.129Z,23.30
2022-08-26T06:41:51.413Z,23.30
2022-08-26T06:44:21.027Z,23.20
2022-08-26T06:46:50.398Z,23.20
2022-08-26T06:49:26.758Z,23.30
2022-08-26T06:51:58.085Z,23.10
2022-08-26T06:54:30.185Z,23.00
2022-08-26T06:56:58.858Z,22.90
2022-08-26T06:59:27.603Z,22.90
2022-08-26T07:01:56.220Z,22.90
2022-08-26T07:04:24.976Z,22.90
2022-08-26T07:06:56.984Z,22.90
2022-08-26T07:09:33.087Z,23.00
2022-08-26T07:12:01.910Z,23.10
2022-08-26T07:14:31.744Z,23.20
2022-08-26T07:17:01.309Z,23.40
2022-08-26T07:19:30.919Z,23.50
2022-08-26T07:22:01.872Z,23.70
2022-08-26T07:24:32.243Z,23.80
2022-08-26T07:27:02.951Z,23.70
2022-08-26T07:29:34.332Z,23.80
2022-08-26T07:32:03.942Z,23.80
2022-08-26T07:34:33.646Z,24.00
2022-08-26T07:37:02.238Z,24.00
2022-08-26T07:39:33.645Z,24.00
2022-08-26T07:42:07.737Z,24.20
2022-08-26T07:44:37.500Z,24.30
2022-08-26T07:47:24.041Z,24.30
2022-08-26T07:49:54.587Z,24.50
2022-08-26T07:52:26.695Z,24.40
2022-08-26T07:54:58.066Z,24.40
2022-08-26T07:57:26.917Z,24.40
2022-08-26T07:59:55.954Z,24.50
2022-08-26T08:02:26.486Z,24.50
2022-08-26T08:04:56.713Z,24.60
2022-08-26T08:07:38.635Z,24.70
2022-08-26T08:10:20.831Z,24.80
2022-08-26T08:12:50.845Z,24.80
2022-08-26T08:15:24.135Z,24.90
2022-08-26T08:17:53.069Z,25.00
2022-08-26T08:20:23.118Z,25.10
2022-08-26T08:22:53.492Z,25.30
2022-08-26T08:25:24.898Z,25.50
2022-08-26T08:27:53.059Z,25.50
2022-08-26T08:30:24.333Z,25.70
2022-08-26T08:32:53.629Z,25.80
2022-08-26T08:35:26.224Z,26.00
2022-08-26T08:37:56.463Z,26.20
2022-08-26T08:40:28.209Z,26.50
2022-08-26T08:43:04.613Z,26.70
2022-08-26T08:45:39.793Z,27.00
2022-08-26T08:48:20.785Z,27.20
2022-08-26T08:51:03.379Z,27.20
2022-08-26T08:53:37.444Z,27.20
2022-08-26T08:56:23.635Z,27.10
2022-08-26T08:59:14.147Z,27.10
2022-08-26T09:02:03.284Z,26.90
2022-08-26T09:05:03.314Z,26.90
2022-08-26T09:07:38.205Z,26.80
2022-08-26T09:10:35.115Z,26.90
2022-08-26T09:13:09.284Z,26.80
2022-08-26T09:15:56.783Z,26.80
2022-08-26T09:18:46.193Z,26.80
2022-08-26T09:21:18.189Z,26.70
2022-08-26T09:23:49.632Z,26.80
2022-08-26T09:26:24.727Z,26.90
2022-08-26T09:29:01.681Z,26.90
2022-08-26T09:31:34.123Z,27.00
2022-08-26T09:34:17.433Z,27.00
2022-08-26T09:36:50.235Z,27.00
2022-08-26T09:39:34.635Z,27.20
2022-08-26T09:42:11.797Z,27.30
2022-08-26T09:45:00.151Z,27.40
2022-08-26T09:47:32.923Z,27.40
2022-08-26T09:50:09.561Z,27.40
2022-08-26T09:52:40.356Z,27.30
2022-08-26T09:55:20.996Z,27.40
2022-08-26T09:57:52.210Z,27.50
2022-08-26T10:00:34.002Z,27.70
2022-08-26T10:03:04.876Z,27.80
2022-08-26T10:05:48.475Z,27.90
2022-08-26T10:08:24.878Z,27.90
2022-08-26T10:10:56.184Z,28.10
2022-08-26T10:13:33.037Z,28.10
2022-08-26T10:16:15.692Z,28.30
2022-08-26T10:18:55.724Z,28.40
2022-08-26T10:21:36.600Z,28.50
2022-08-26T10:24:08.135Z,28.50
2022-08-26T10:26:46.320Z,28.50
2022-08-26T10:29:21.405Z,28.50
2022-08-26T10:32:03.408Z,28.50
2022-08-26T10:34:33.218Z,28.50
2022-08-26T10:37:15.559Z,28.60
2022-08-26T10:39:57.109Z,28.60
2022-08-26T10:42:35.159Z,28.60
2022-08-26T10:45:12.025Z,28.60
2022-08-26T10:47:51.355Z,28.70
2022-08-26T10:50:23.781Z,28.60
2022-08-26T10:53:03.090Z,28.50
2022-08-26T10:55:44.271Z,28.40
2022-08-26T10:58:32.939Z,28.20
2022-08-26T11:01:35.799Z,28.20
2022-08-26T11:04:28.462Z,28.40
2022-08-26T11:07:36.230Z,28.50
2022-08-26T11:10:32.019Z,28.70
2022-08-26T11:13:03.537Z,28.70
2022-08-26T11:16:01.074Z,28.80
2022-08-26T11:18:48.717Z,28.90
2022-08-26T11:25:04.017Z,29.00
2022-08-26T11:28:07.432Z,29.30
2022-08-26T11:30:56.859Z,29.60
2022-08-26T11:33:58.020Z,29.90
2022-08-26T11:36:45.341Z,30.30
2022-08-26T11:39:23.033Z,30.60
2022-08-26T11:41:55.679Z,30.80
2022-08-26T11:44:30.084Z,31.10
2022-08-26T11:47:01.589Z,31.30
2022-08-26T11:49:33.365Z,31.40
2022-08-26T11:52:21.574Z,31.70
2022-08-26T11:55:04.668Z,31.90
2022-08-26T11:57:43.146Z,32.00
2022-08-26T12:00:22.549Z,32.10
2022-08-26T12:02:52.631Z,32.10
2022-08-26T12:05:31.100Z,32.00
2022-08-26T12:08:08.176Z,31.60
2022-08-26T12:10:38.647Z,30.90
2022-08-26T12:13:09.781Z,30.20
2022-08-26T12:15:38.512Z,29.50
2022-08-26T12:18:29.051Z,28.90
2022-08-26T12:21:02.687Z,28.40
2022-08-26T12:23:43.351Z,28.00
2022-08-26T12:26:24.254Z,27.50
2022-08-26T12:29:00.005Z,27.20
2022-08-26T12:31:33.045Z,26.80
2022-08-26T12:34:05.948Z,26.10
2022-08-26T12:36:40.793Z,25.40
2022-08-26T12:39:12.213Z,24.80
2022-08-26T12:41:49.587Z,24.30
2022-08-26T12:44:53.915Z,24.10
2022-08-26T12:47:32.774Z,23.90
2022-08-26T12:50:19.831Z,23.70
2022-08-26T12:53:00.021Z,23.60
2022-08-26T12:55:39.929Z,23.50
2022-08-26T12:58:21.283Z,23.40
2022-08-26T13:00:52.916Z,23.40
2022-08-26T13:03:43.209Z,23.30
2022-08-26T13:06:29.794Z,23.30
2022-08-26T13:09:00.699Z,23.30
2022-08-26T13:11:32.432Z,23.30
2022-08-26T13:14:06.799Z,23.30
2022-08-26T13:16:38.166Z,23.30
2022-08-26T13:19:10.404Z,23.40
2022-08-26T13:21:47.758Z,23.50
2022-08-26T13:24:19.408Z,23.60
2022-08-26T13:26:50.367Z,23.70
2022-08-26T13:29:20.282Z,23.80
2022-08-26T13:31:51.464Z,23.90
2022-08-26T13:34:23.930Z,24.00
2022-08-26T13:36:55.199Z,24.20
2022-08-26T13:39:23.855Z,24.20
2022-08-26T13:41:52.994Z,24.20
2022-08-26T13:44:21.655Z,24.20
2022-08-26T13:46:51.165Z,24.10
2022-08-26T13:49:19.277Z,24.10
2022-08-26T13:51:47.474Z,24.10
2022-08-26T13:54:15.668Z,24.00
2022-08-26T13:56:43.954Z,24.10
2022-08-26T13:59:12.114Z,24.00
2022-08-26T14:01:40.260Z,23.90
2022-08-26T14:04:09.749Z,24.00
2022-08-26T14:06:37.872Z,24.10
2022-08-26T14:09:06.501Z,24.20
2022-08-26T14:11:50.874Z,24.30
2022-08-26T14:14:23.073Z,24.30
2022-08-26T14:16:59.651Z,24.20
2022-08-26T14:19:31.025Z,24.20
2022-08-26T14:22:00.769Z,24.00
2022-08-26T14:24:30.166Z,23.90
2022-08-26T14:26:58.620Z,23.80
2022-08-26T14:29:26.853Z,23.70
2022-08-26T14:31:58.674Z,23.70
2022-08-26T14:34:27.012Z,23.80
2022-08-26T14:36:56.524Z,23.70
2022-08-26T14:39:24.836Z,23.80
2022-08-26T14:41:57.382Z,24.00
2022-08-26T14:44:30.521Z,24.00
2022-08-26T14:47:02.041Z,24.10
2022-08-26T14:49:31.303Z,24.20
2022-08-26T14:52:01.272Z,24.20
2022-08-26T14:54:29.484Z,24.30
2022-08-26T14:57:03.461Z,24.40
2022-08-26T14:59:36.393Z,24.40
2022-08-26T15:02:06.278Z,24.40
2022-08-26T15:04:35.432Z,24.50
2022-08-26T15:07:05.935Z,24.60
2022-08-26T15:09:37.526Z,24.50
2022-08-26T15:12:06.642Z,24.50
2022-08-26T15:14:34.831Z,24.50
2022-08-26T15:17:03.007Z,24.50
2022-08-26T15:19:31.163Z,24.60
2022-08-26T15:21:59.325Z,24.60
2022-08-26T15:24:29.632Z,24.60
2022-08-26T15:26:58.323Z,24.50
2022-08-26T15:29:26.774Z,24.40
2022-08-26T15:31:55.281Z,24.50
2022-08-26T15:34:25.718Z,24.60
2022-08-26T15:36:54.056Z,24.60
2022-08-26T15:39:22.471Z,24.60
2022-08-26T15:41:52.105Z,24.70
2022-08-26T15:44:20.679Z,24.80
2022-08-26T15:46:52.520Z,25.00
2022-08-26T15:49:24.550Z,25.10
2022-08-26T15:51:52.716Z,25.10
2022-08-26T15:54:24.306Z,25.20
2022-08-26T15:56:53.869Z,25.10
2022-08-26T15:59:23.523Z,25.00
2022-08-26T16:01:51.997Z,24.90
2022-08-26T16:04:20.394Z,24.90
2022-08-26T16:06:52.106Z,24.90
2022-08-26T16:09:24.285Z,24.80
2022-08-26T16:11:54.514Z,24.80
2022-08-26T16:14:23.596Z,24.70
2022-08-26T16:16:52.114Z,24.70
2022-08-26T16:19:21.372Z,24.70
2022-08-26T16:21:50.775Z,24.70
2022-08-26T16:24:24.872Z,24.60
2022-08-26T16:26:55.897Z,24.50
2022-08-26T16:29:24.511Z,24.40
2022-08-26T16:31:53.791Z,24.30
2022-08-26T16:34:22.847Z,24.20
2022-08-26T16:36:51.230Z,24.20
2022-08-26T16:39:19.354Z,24.20
2022-08-26T16:41:47.451Z,24.10
2022-08-26T16:44:17.042Z,24.00
2022-08-26T16:46:45.620Z,24.10
2022-08-26T16:49:13.976Z,24.00
2022-08-26T16:51:42.217Z,24.00
2022-08-26T16:54:10.735Z,24.00
2022-08-26T16:56:39.867Z,23.90
2022-08-26T16:59:11.431Z,23.90
2022-08-26T17:01:41.017Z,23.90
2022-08-26T17:04:09.237Z,23.80
2022-08-26T17:06:38.236Z,23.80
2022-08-26T17:09:06.808Z,23.80
2022-08-26T17:11:35.347Z,23.70
2022-08-26T17:14:03.872Z,23.70
2022-08-26T17:16:32.507Z,23.60
2022-08-26T17:19:02.451Z,23.60
2022-08-26T17:21:30.729Z,23.50
2022-08-26T17:23:59.316Z,23.50
2022-08-26T17:26:28.052Z,23.40
2022-08-26T17:28:56.837Z,23.30
2022-08-26T17:31:25.888Z,23.30
2022-08-26T17:33:55.500Z,23.20
2022-08-26T17:36:27.713Z,23.20
2022-08-26T17:38:57.831Z,23.20
2022-08-26T17:41:26.954Z,23.20
2022-08-26T17:43:55.335Z,23.20
2022-08-26T17:46:24.338Z,23.10
2022-08-26T17:48:53.013Z,23.10
2022-08-26T17:51:22.900Z,23.00
2022-08-26T17:53:53.586Z,23.00
2022-08-26T17:56:25.635Z,23.00
2022-08-26T17:58:56.452Z,23.00
2022-08-26T18:01:28.066Z,23.00
2022-08-26T18:04:00.395Z,23.00
2022-08-26T18:06:30.243Z,22.90
2022-08-26T18:09:01.218Z,22.80
2022-08-26T18:11:31.119Z,22.80
2022-08-26T18:13:59.930Z,22.70
2022-08-26T18:16:31.835Z,22.70
2022-08-26T18:19:00.847Z,22.60
2022-08-26T18:21:29.497Z,22.50
2022-08-26T18:23:59.020Z,22.40
2022-08-26T18:26:31.051Z,22.30
2022-08-26T18:29:00.085Z,22.30
2022-08-26T18:31:29.181Z,22.30
2022-08-26T18:34:00.172Z,22.20
2022-08-26T18:36:32.351Z,22.10
2022-08-26T18:39:02.865Z,22.00
2022-08-26T18:41:33.979Z,22.00
2022-08-26T18:44:02.093Z,22.00
2022-08-26T18:46:30.328Z,22.00
2022-08-26T18:48:59.406Z,22.00
2022-08-26T18:51:30.568Z,22.00
2022-08-26T18:54:02.844Z,22.00
2022-08-26T18:56:31.619Z,22.00
2022-08-26T18:59:00.055Z,22.00
2022-08-26T19:01:30.499Z,22.00
2022-08-26T19:04:01.347Z,22.00
2022-08-26T19:06:32.895Z,22.10
2022-08-26T19:09:03.445Z,22.20
2022-08-26T19:11:37.259Z,22.20
2022-08-26T19:14:16.784Z,22.20
2022-08-26T19:16:48.710Z,22.10
2022-08-26T19:19:17.571Z,22.10
2022-08-26T19:21:46.931Z,22.10
2022-08-26T19:24:19.698Z,22.10
2022-08-26T19:26:57.771Z,22.10
2022-08-26T19:29:31.138Z,22.10
2022-08-26T19:31:59.701Z,22.10
2022-08-26T19:34:28.012Z,22.00
2022-08-26T19:36:58.246Z,22.00
2022-08-26T19:39:28.214Z,22.00
2022-08-26T19:41:56.404Z,22.00
2022-08-26T19:44:43.066Z,22.00
2022-08-26T19:47:15.747Z,22.00
2022-08-26T19:49:43.910Z,22.00
2022-08-26T19:52:12.423Z,22.00
2022-08-26T19:54:42.301Z,21.90
2022-08-26T19:57:11.095Z,21.90
2022-08-26T19:59:40.260Z,21.90
2022-08-26T20:02:11.142Z,21.90
2022-08-26T20:04:41.547Z,21.90
2022-08-26T20:07:12.957Z,21.90
2022-08-26T20:09:44.879Z,21.90
2022-08-26T20:12:13.595Z,21.80
2022-08-26T20:14:42.337Z,21.80
2022-08-26T20:17:10.572Z,21.70
2022-08-26T20:19:56.244Z,21.70
2022-08-26T20:22:24.630Z,21.70
2022-08-26T20:24:56.646Z,21.60
2022-08-26T20:27:38.010Z,21.60
2022-08-26T20:30:10.269Z,21.60
2022-08-26T20:32:39.424Z,21.60
2022-08-26T20:35:12.834Z,21.60
2022-08-26T20:37:42.136Z,21.60
2022-08-26T20:40:15.458Z,21.60
2022-08-26T20:42:43.695Z,21.60
2022-08-26T20:45:12.431Z,21.60
2022-08-26T20:47:41.706Z,21.60
2022-08-26T20:50:10.700Z,21.50
2022-08-26T20:52:38.898Z,21.50
2022-08-26T20:55:08.398Z,21.40
2022-08-26T20:57:37.883Z,21.30
2022-08-26T21:00:07.814Z,21.30
2022-08-26T21:02:37.015Z,21.30
2022-08-26T21:05:06.766Z,21.30
2022-08-26T21:07:35.663Z,21.30
2022-08-26T21:10:05.035Z,21.30
2022-08-26T21:12:33.167Z,21.30
2022-08-26T21:15:02.843Z,21.30
2022-08-26T21:17:31.314Z,21.30
2022-08-26T21:19:59.725Z,21.20
2022-08-26T21:22:28.409Z,21.20
2022-08-26T21:24:56.592Z,21.20
2022-08-26T21:27:26.328Z,21.20
2022-08-26T21:29:54.959Z,21.20
2022-08-26T21:32:24.546Z,21.20
2022-08-26T21:34:56.860Z,21.20
2022-08-26T21:37:26.784Z,21.20
2022-08-26T21:39:56.353Z,21.20
2022-08-26T21:42:26.758Z,21.10
2022-08-26T21:44:55.187Z,21.10
2022-08-26T21:47:25.409Z,21.10
2022-08-26T21:49:54.339Z,21.10
2022-08-26T21:52:22.530Z,21.10
2022-08-26T21:54:50.737Z,21.00
2022-08-26T21:57:19.450Z,21.00
2022-08-26T21:59:47.546Z,20.90
2022-08-26T22:02:15.836Z,20.90
2022-08-26T22:04:48.739Z,20.90
2022-08-26T22:07:19.078Z,20.80
2022-08-26T22:09:47.700Z,20.80
2022-08-26T22:12:18.064Z,20.70
2022-08-26T22:14:47.017Z,20.60
2022-08-26T22:17:15.912Z,20.60
2022-08-26T22:19:45.904Z,20.60
2022-08-26T22:22:14.950Z,20.60
2022-08-26T22:24:44.128Z,20.60
2022-08-26T22:27:12.986Z,20.60
2022-08-26T22:29:41.292Z,20.60
2022-08-26T22:32:09.618Z,20.50
2022-08-26T22:34:37.870Z,20.50
2022-08-26T22:37:07.498Z,20.40
2022-08-26T22:39:35.611Z,20.40
2022-08-26T22:42:04.406Z,20.40
2022-08-26T22:44:36.349Z,20.40
2022-08-26T22:47:04.650Z,20.40
2022-08-26T22:49:32.797Z,20.40
2022-08-26T22:52:00.950Z,20.40
2022-08-26T22:54:30.460Z,20.30
2022-08-26T22:56:58.882Z,20.30
2022-08-26T22:59:27.020Z,20.30
2022-08-26T23:01:55.179Z,20.20
2022-08-26T23:04:23.326Z,20.20
2022-08-26T23:06:51.472Z,20.10
2022-08-26T23:09:20.528Z,20.10
2022-08-26T23:11:51.339Z,20.20
2022-08-26T23:14:20.223Z,20.10
2022-08-26T23:16:48.728Z,20.10
2022-08-26T23:19:19.888Z,20.10
2022-08-26T23:21:49.413Z,20.10
2022-08-26T23:24:18.898Z,20.00
2022-08-26T23:26:47.726Z,20.00
2022-08-26T23:29:17.413Z,20.00
2022-08-26T23:31:45.748Z,20.00
2022-08-26T23:34:31.672Z,20.00
2022-08-26T23:37:00.992Z,20.00
2022-08-26T23:39:29.701Z,20.10
2022-08-26T23:41:58.155Z,20.00
2022-08-26T23:44:28.495Z,20.10
2022-08-26T23:46:56.897Z,20.10
2022-08-26T23:49:26.397Z,20.00
2022-08-26T23:52:12.835Z,20.10
2022-08-26T23:54:41.573Z,20.10
2022-08-26T23:57:10.882Z,20.10
2022-08-26T23:59:40.750Z,20.10
